createdAt,value
2019-05-22T00:02:29.891Z,99.90
2019-05-22T00:06:39.043Z,99.90
2019-05-22T00:10:46.875Z,99.90
2019-05-22T00:14:52.619Z,99.90
2019-05-22T00:18:59.063Z,99.90
2019-05-22T00:23:08.112Z,99.90
2019-05-22T00:27:15.126Z,99.90
2019-05-22T00:31:22.172Z,99.90
2019-05-22T00:35:29.123Z,99.90
2019-05-22T00:39:33.838Z,99.90
2019-05-22T00:43:44.666Z,99.90
2019-05-22T00:47:51.409Z,99.90
2019-05-22T00:52:07.208Z,99.90
2019-05-22T00:56:29.581Z,99.90
2019-05-22T01:00:39.742Z,99.90
2019-05-22T01:04:46.568Z,99.90
2019-05-22T01:08:53.267Z,99.90
2019-05-22T01:13:01.814Z,99.90
2019-05-22T01:17:07.951Z,99.90
2019-05-22T01:21:15.488Z,99.90
2019-05-22T01:25:24.416Z,99.90
2019-05-22T01:29:29.935Z,99.90
2019-05-22T01:33:42.379Z,99.90
2019-05-22T01:37:48.380Z,99.90
2019-05-22T01:41:56.329Z,99.90
2019-05-22T01:46:03.309Z,99.90
2019-05-22T01:50:10.944Z,99.90
2019-05-22T01:54:18.237Z,99.90
2019-05-22T01:58:24.610Z,99.90
2019-05-22T02:02:30.607Z,99.90
2019-05-22T02:06:39.285Z,99.90
2019-05-22T02:10:45.950Z,99.90
2019-05-22T02:14:52.905Z,99.90
2019-05-22T02:18:58.021Z,99.90
2019-05-22T02:23:03.112Z,99.90
2019-05-22T02:27:10.042Z,99.90
2019-05-22T02:31:23.239Z,99.90
2019-05-22T02:35:29.298Z,99.90
2019-05-22T02:39:36.068Z,99.90
2019-05-22T02:43:41.033Z,99.90
2019-05-22T02:47:46.922Z,99.90
2019-05-22T02:51:53.972Z,99.90
2019-05-22T02:55:58.869Z,99.90
2019-05-22T03:00:04.824Z,99.90
2019-05-22T03:04:11.432Z,99.90
2019-05-22T03:08:16.453Z,99.90
2019-05-22T03:12:24.453Z,99.90
2019-05-22T03:16:36.186Z,99.90
2019-05-22T03:20:41.941Z,99.90
2019-05-22T03:24:47.526Z,99.90
2019-05-22T03:28:53.380Z,99.90
2019-05-22T03:33:01.084Z,99.90
2019-05-22T03:37:07.101Z,99.90
2019-05-22T03:41:13.638Z,99.90
2019-05-22T03:45:21.344Z,99.90
2019-05-22T03:49:30.804Z,99.90
2019-05-22T03:53:36.650Z,99.90
2019-05-22T03:57:42.624Z,99.90
2019-05-22T04:01:47.891Z,99.90
2019-05-22T04:05:53.628Z,99.90
2019-05-22T04:09:59.362Z,99.90
2019-05-22T04:14:04.949Z,99.90
2019-05-22T04:18:14.437Z,99.90
2019-05-22T04:22:20.788Z,99.90
2019-05-22T04:26:26.681Z,99.90
2019-05-22T04:30:33.296Z,99.90
2019-05-22T04:34:38.821Z,99.90
2019-05-22T04:38:44.006Z,99.90
2019-05-22T04:42:50.705Z,99.90
2019-05-22T04:46:56.235Z,99.90
2019-05-22T04:51:24.008Z,99.90
2019-05-22T04:55:30.098Z,99.90
2019-05-22T04:59:36.487Z,99.90
2019-05-22T05:03:41.436Z,99.90
2019-05-22T05:07:46.906Z,99.90
2019-05-22T05:11:51.720Z,99.90
2019-05-22T05:15:57.111Z,99.90
2019-05-22T05:20:01.872Z,99.90
2019-05-22T05:24:07.656Z,99.90
2019-05-22T05:28:13.917Z,99.90
2019-05-22T05:32:19.295Z,99.90
2019-05-22T05:36:24.091Z,99.90
2019-05-22T05:40:33.719Z,99.90
2019-05-22T05:44:39.093Z,99.90
2019-05-22T05:48:44.786Z,99.90
2019-05-22T05:52:51.441Z,99.90
2019-05-22T05:56:59.521Z,99.90
2019-05-22T06:01:15.257Z,99.90
2019-05-22T06:05:21.316Z,99.90
2019-05-22T06:09:27.171Z,99.90
2019-05-22T06:13:32.765Z,99.90
2019-05-22T06:18:13.873Z,99.90
2019-05-22T06:22:19.937Z,99.90
2019-05-22T06:26:37.393Z,99.90
2019-05-22T06:30:46.240Z,99.90
2019-05-22T06:34:52.584Z,99.90
2019-05-22T06:39:13.730Z,99.90
2019-05-22T06:43:59.237Z,99.90
2019-05-22T06:48:04.428Z,99.90
2019-05-22T06:52:09.504Z,99.90
2019-05-22T06:56:14.311Z,99.90
2019-05-22T07:00:24.873Z,99.90
2019-05-22T07:04:29.757Z,99.90
2019-05-22T07:08:35.501Z,99.90
2019-05-22T07:12:42.531Z,99.90
2019-05-22T07:16:48.553Z,99.90
2019-05-22T07:20:56.831Z,99.90
2019-05-22T07:25:02.617Z,99.90
2019-05-22T07:29:11.073Z,99.90
2019-05-22T07:33:17.192Z,99.90
2019-05-22T07:37:23.544Z,99.90
2019-05-22T07:41:28.711Z,99.90
2019-05-22T07:45:35.074Z,99.90
2019-05-22T07:49:40.747Z,99.90
2019-05-22T07:53:47.074Z,99.90
2019-05-22T07:57:56.382Z,99.90
2019-05-22T08:02:02.163Z,99.90
2019-05-22T08:06:08.222Z,99.90
2019-05-22T08:10:15.669Z,99.90
2019-05-22T08:14:23.728Z,99.90
2019-05-22T08:18:30.545Z,99.90
2019-05-22T08:22:37.997Z,99.90
2019-05-22T08:26:53.752Z,99.90
2019-05-22T08:30:51.509Z,99.90
2019-05-22T08:34:56.594Z,99.90
2019-05-22T08:39:02.349Z,99.90
2019-05-22T08:43:08.478Z,99.90
2019-05-22T08:47:13.576Z,99.90
2019-05-22T08:51:19.844Z,99.90
2019-05-22T08:55:25.942Z,99.90
2019-05-22T08:59:30.742Z,99.90
2019-05-22T09:03:35.693Z,99.90
2019-05-22T09:07:41.145Z,99.90
2019-05-22T09:11:45.943Z,99.70
2019-05-22T09:15:51.817Z,99.90
2019-05-22T09:19:57.763Z,99.80
2019-05-22T09:24:04.656Z,98.80
2019-05-22T09:28:10.121Z,98.60
2019-05-22T09:32:15.328Z,99.30
2019-05-22T09:36:20.204Z,99.50
2019-05-22T09:40:25.645Z,98.40
2019-05-22T09:44:30.526Z,98.50
2019-05-22T09:48:36.609Z,98.60
2019-05-22T09:52:56.315Z,98.90
2019-05-22T09:56:49.996Z,99.20
2019-05-22T10:00:55.179Z,99.20
2019-05-22T10:04:59.974Z,99.30
2019-05-22T10:09:07.521Z,98.90
2019-05-22T10:13:13.230Z,98.90
2019-05-22T10:17:19.016Z,99.20
2019-05-22T10:21:26.886Z,99.40
2019-05-22T10:25:31.809Z,99.10
2019-05-22T10:29:37.061Z,98.30
2019-05-22T10:33:42.456Z,98.10
2019-05-22T10:37:48.101Z,97.80
2019-05-22T10:41:52.912Z,97.00
2019-05-22T10:45:58.110Z,96.70
2019-05-22T10:50:03.957Z,95.80
2019-05-22T10:54:09.034Z,95.70
2019-05-22T10:58:14.307Z,96.00
2019-05-22T11:02:19.908Z,96.40
2019-05-22T11:06:25.673Z,96.20
2019-05-22T11:10:30.843Z,95.60
2019-05-22T11:14:35.655Z,95.60
2019-05-22T11:18:41.110Z,96.80
2019-05-22T11:22:46.543Z,96.70
2019-05-22T11:26:51.706Z,96.80
2019-05-22T11:30:57.830Z,97.30
2019-05-22T11:35:03.108Z,96.90
2019-05-22T11:39:13.468Z,96.60
2019-05-22T11:43:18.538Z,96.30
2019-05-22T11:47:24.207Z,97.30
2019-05-22T11:51:28.925Z,98.00
2019-05-22T11:55:45.364Z,97.50
2019-05-22T11:59:41.376Z,96.90
2019-05-22T12:03:47.667Z,97.00
2019-05-22T12:07:52.552Z,96.40
2019-05-22T12:11:58.461Z,95.50
2019-05-22T12:16:05.399Z,94.60
2019-05-22T12:20:11.575Z,94.90
2019-05-22T12:24:26.930Z,94.60
2019-05-22T12:28:23.948Z,94.50
2019-05-22T12:32:30.684Z,94.90
2019-05-22T12:36:35.920Z,94.70
2019-05-22T12:40:41.577Z,95.10
2019-05-22T12:44:47.742Z,94.40
2019-05-22T12:48:54.491Z,93.60
2019-05-22T12:53:02.083Z,93.40
2019-05-22T12:57:08.048Z,93.20
2019-05-22T13:01:14.214Z,93.50
2019-05-22T13:05:19.101Z,93.20
2019-05-22T13:09:24.190Z,93.00
2019-05-22T13:13:30.114Z,93.40
2019-05-22T13:17:36.166Z,94.00
2019-05-22T13:21:42.320Z,93.90
2019-05-22T13:25:47.489Z,93.60
2019-05-22T13:29:54.175Z,93.00
2019-05-22T13:34:01.086Z,92.50
2019-05-22T13:38:07.057Z,92.10
2019-05-22T13:42:13.570Z,91.90
2019-05-22T13:46:18.788Z,91.60
2019-05-22T13:50:28.652Z,91.40
2019-05-22T13:54:32.773Z,91.90
2019-05-22T13:58:38.224Z,92.60
2019-05-22T14:02:43.395Z,92.30
2019-05-22T14:06:49.395Z,92.00
2019-05-22T14:10:55.696Z,92.30
2019-05-22T14:15:00.516Z,91.20
2019-05-22T14:19:05.860Z,90.90
2019-05-22T14:23:11.253Z,90.40
2019-05-22T14:27:16.144Z,90.50
2019-05-22T14:31:21.919Z,91.70
2019-05-22T14:35:45.016Z,92.20
2019-05-22T14:39:35.795Z,92.10
2019-05-22T14:43:40.532Z,91.90
2019-05-22T14:47:45.830Z,91.90
2019-05-22T14:51:51.799Z,91.20
2019-05-22T14:55:59.051Z,91.10
2019-05-22T15:00:04.651Z,90.40
2019-05-22T15:04:09.462Z,90.30
2019-05-22T15:08:14.660Z,88.50
2019-05-22T15:12:19.564Z,89.70
2019-05-22T15:16:24.944Z,90.30
2019-05-22T15:20:42.008Z,90.30
2019-05-22T15:24:46.896Z,90.20
2019-05-22T15:28:52.356Z,90.50
2019-05-22T15:32:58.132Z,90.50
2019-05-22T15:37:03.547Z,90.50
2019-05-22T15:41:11.355Z,90.50
2019-05-22T15:45:19.787Z,91.00
2019-05-22T15:49:25.773Z,90.90
2019-05-22T15:53:33.267Z,90.70
2019-05-22T15:57:40.305Z,90.70
2019-05-22T16:01:47.047Z,91.60
2019-05-22T16:05:53.974Z,90.90
2019-05-22T16:10:00.648Z,90.30
2019-05-22T16:14:08.209Z,89.90
2019-05-22T16:18:14.625Z,91.10
2019-05-22T16:22:19.405Z,91.60
2019-05-22T16:26:24.996Z,92.00
2019-05-22T16:30:30.661Z,92.10
2019-05-22T16:34:37.612Z,91.40
2019-05-22T16:38:44.005Z,91.30
2019-05-22T16:42:50.716Z,90.50
2019-05-22T16:46:58.008Z,90.20
2019-05-22T16:51:04.400Z,90.60
2019-05-22T16:55:12.694Z,90.50
2019-05-22T16:59:19.246Z,91.20
2019-05-22T17:03:26.007Z,91.40
2019-05-22T17:07:32.945Z,90.80
2019-05-22T17:11:38.596Z,90.80
2019-05-22T17:15:43.993Z,90.70
2019-05-22T17:19:50.698Z,90.60
2019-05-22T17:23:55.983Z,90.40
2019-05-22T17:28:01.572Z,90.10
2019-05-22T17:32:08.219Z,90.10
2019-05-22T17:36:14.836Z,89.80
2019-05-22T17:40:20.944Z,90.00
2019-05-22T17:44:27.203Z,90.20
2019-05-22T17:48:33.949Z,90.70
2019-05-22T17:52:38.975Z,91.20
2019-05-22T17:56:44.212Z,91.50
2019-05-22T18:00:49.728Z,91.40
2019-05-22T18:04:55.168Z,91.00
2019-05-22T18:09:00.037Z,91.10
2019-05-22T18:13:06.741Z,91.20
2019-05-22T18:17:12.510Z,91.10
2019-05-22T18:21:18.244Z,90.60
2019-05-22T18:25:23.132Z,90.90
2019-05-22T18:29:28.027Z,90.90
2019-05-22T18:33:33.334Z,90.90
2019-05-22T18:37:38.224Z,90.60
2019-05-22T18:41:44.356Z,90.20
2019-05-22T18:45:50.027Z,90.20
2019-05-22T18:49:54.892Z,89.80
2019-05-22T18:53:59.985Z,89.60
2019-05-22T18:58:04.949Z,90.30
2019-05-22T19:02:10.915Z,90.20
2019-05-22T19:06:29.325Z,90.40
2019-05-22T19:10:24.539Z,90.90
2019-05-22T19:14:29.336Z,91.10
2019-05-22T19:18:34.047Z,91.10
2019-05-22T19:22:39.997Z,91.40
2019-05-22T19:26:45.272Z,91.90
2019-05-22T19:30:51.564Z,92.30
2019-05-22T19:34:56.415Z,92.70
2019-05-22T19:39:01.839Z,92.40
2019-05-22T19:43:08.181Z,92.30
2019-05-22T19:47:14.265Z,92.30
2019-05-22T19:51:20.012Z,92.70
2019-05-22T19:55:27.652Z,93.00
2019-05-22T19:59:33.988Z,93.60
2019-05-22T20:03:39.205Z,93.90
2019-05-22T20:07:44.751Z,94.20
2019-05-22T20:11:49.672Z,94.40
2019-05-22T20:15:56.493Z,94.30
2019-05-22T20:20:02.269Z,94.60
2019-05-22T20:24:09.200Z,94.70
2019-05-22T20:28:15.246Z,94.80
2019-05-22T20:32:20.728Z,94.70
2019-05-22T20:36:25.427Z,94.40
2019-05-22T20:40:30.781Z,94.70
2019-05-22T20:44:35.957Z,95.00
2019-05-22T20:48:41.761Z,95.50
2019-05-22T20:52:47.449Z,95.50
2019-05-22T20:56:53.196Z,95.60
2019-05-22T21:00:58.501Z,95.40
2019-05-22T21:05:05.517Z,95.30
2019-05-22T21:09:11.435Z,95.00
2019-05-22T21:13:18.682Z,95.00
2019-05-22T21:17:25.340Z,95.20
2019-05-22T21:21:30.652Z,95.00
2019-05-22T21:25:35.476Z,95.10
2019-05-22T21:29:40.428Z,95.50
2019-05-22T21:33:46.056Z,95.20
2019-05-22T21:37:51.224Z,95.20
2019-05-22T21:41:56.724Z,96.00
2019-05-22T21:46:01.532Z,96.50
2019-05-22T21:50:08.123Z,96.80
2019-05-22T21:54:14.179Z,96.60
2019-05-22T21:58:19.645Z,96.50
2019-05-22T22:02:31.027Z,96.60
2019-05-22T22:06:36.377Z,96.80
2019-05-22T22:10:41.288Z,97.00
2019-05-22T22:14:47.799Z,97.10
2019-05-22T22:18:53.198Z,97.40
2019-05-22T22:22:57.995Z,97.50
2019-05-22T22:27:04.067Z,97.80
2019-05-22T22:31:12.051Z,97.70
2019-05-22T22:35:18.599Z,97.60
2019-05-22T22:39:25.447Z,97.60
2019-05-22T22:43:32.874Z,97.30
2019-05-22T22:47:41.951Z,96.90
2019-05-22T22:51:48.948Z,97.30
2019-05-22T22:55:55.438Z,97.50
2019-05-22T23:00:00.748Z,97.60
2019-05-22T23:04:08.980Z,97.40
2019-05-22T23:08:17.831Z,97.40
2019-05-22T23:12:22.623Z,97.00
2019-05-22T23:16:28.699Z,96.50
2019-05-22T23:20:34.020Z,96.60
2019-05-22T23:24:40.900Z,96.50
2019-05-22T23:28:45.784Z,96.60
2019-05-22T23:32:52.363Z,96.70
2019-05-22T23:36:58.750Z,96.70
2019-05-22T23:41:04.843Z,96.40
2019-05-22T23:45:14.905Z,96.50
2019-05-22T23:49:20.308Z,96.90
2019-05-22T23:53:27.055Z,96.90
2019-05-22T23:57:32.445Z,96.60
